createdAt,value
2018-03-26T00:01:04.910Z,133.17
2018-03-26T00:02:10.807Z,122.60
2018-03-26T00:03:16.652Z,141.40
2018-03-26T00:04:21.695Z,141.10
2018-03-26T00:05:26.668Z,129.60
2018-03-26T00:06:30.959Z,133.57
2018-03-26T00:07:36.441Z,144.50
2018-03-26T00:08:42.290Z,134.63
2018-03-26T00:09:49.044Z,134.30
2018-03-26T00:10:53.368Z,146.77
2018-03-26T00:11:57.615Z,142.63
2018-03-26T00:13:02.591Z,150.67
2018-03-26T00:14:07.609Z,134.67
2018-03-26T00:15:13.342Z,143.43
2018-03-26T00:16:19.021Z,149.13
2018-03-26T00:17:23.347Z,150.80
2018-03-26T00:18:27.941Z,149.30
2018-03-26T00:19:32.139Z,136.87
2018-03-26T00:20:40.059Z,148.20
2018-03-26T00:21:45.144Z,141.20
2018-03-26T00:22:51.091Z,144.30
2018-03-26T00:23:56.120Z,140.63
2018-03-26T00:25:01.087Z,147.27
2018-03-26T00:26:08.001Z,156.53
2018-03-26T00:27:13.216Z,143.40
2018-03-26T00:28:18.809Z,152.67
2018-03-26T00:29:24.837Z,170.47
2018-03-26T00:30:29.030Z,147.47
2018-03-26T00:31:33.304Z,153.93
2018-03-26T00:32:38.892Z,171.70
2018-03-26T00:33:44.560Z,161.13
2018-03-26T00:34:50.348Z,158.17
2018-03-26T00:35:55.290Z,183.30
2018-03-26T00:36:59.490Z,154.57
2018-03-26T00:38:03.833Z,148.63
2018-03-26T00:39:10.063Z,143.33
2018-03-26T00:40:16.464Z,152.03
2018-03-26T00:41:21.817Z,157.30
2018-03-26T00:42:26.779Z,149.57
2018-03-26T00:43:30.989Z,164.07
2018-03-26T00:44:35.930Z,154.10
2018-03-26T00:45:42.278Z,156.30
2018-03-26T00:46:47.941Z,139.90
2018-03-26T00:47:53.092Z,172.17
2018-03-26T00:48:57.300Z,165.83
2018-03-26T00:50:01.499Z,161.53
2018-03-26T00:51:06.806Z,163.17
2018-03-26T00:52:12.263Z,169.17
2018-03-26T00:53:35.319Z,149.43
2018-03-26T00:54:43.663Z,140.17
2018-03-26T00:55:49.739Z,155.30
2018-03-26T00:56:54.763Z,157.37
2018-03-26T00:57:59.750Z,156.03
2018-03-26T00:59:04.680Z,140.83
2018-03-26T01:00:10.447Z,173.10
2018-03-26T01:01:15.322Z,155.53
2018-03-26T01:02:19.631Z,154.07
2018-03-26T01:03:23.834Z,158.40
2018-03-26T01:04:28.803Z,177.60
2018-03-26T01:05:33.038Z,173.20
2018-03-26T01:06:38.135Z,157.10
2018-03-26T01:07:42.746Z,173.00
2018-03-26T01:08:48.069Z,155.43
2018-03-26T01:09:52.258Z,158.37
2018-03-26T01:10:56.446Z,184.17
2018-03-26T01:12:00.672Z,179.43
2018-03-26T01:13:06.918Z,163.60
2018-03-26T01:14:12.263Z,169.67
2018-03-26T01:15:17.416Z,183.70
2018-03-26T01:16:22.410Z,171.33
2018-03-26T01:17:26.626Z,175.53
2018-03-26T01:18:30.837Z,162.67
2018-03-26T01:19:36.331Z,154.50
2018-03-26T01:20:41.218Z,178.03
2018-03-26T01:21:46.689Z,179.50
2018-03-26T01:22:51.561Z,169.93
2018-03-26T01:23:55.776Z,189.57
2018-03-26T01:24:59.974Z,174.20
2018-03-26T01:26:04.446Z,173.90
2018-03-26T01:27:11.050Z,156.70
2018-03-26T01:28:16.769Z,172.43
2018-03-26T01:29:21.220Z,167.30
2018-03-26T01:30:25.426Z,156.70
2018-03-26T01:31:29.640Z,162.17
2018-03-26T01:32:35.170Z,160.50
2018-03-26T01:33:40.351Z,172.47
2018-03-26T01:34:47.037Z,177.43
2018-03-26T01:35:51.645Z,154.23
2018-03-26T01:36:55.968Z,154.87
2018-03-26T01:38:00.960Z,131.83
2018-03-26T01:39:06.746Z,176.80
2018-03-26T01:40:13.739Z,155.50
2018-03-26T01:41:20.188Z,163.27
2018-03-26T01:42:25.171Z,148.17
2018-03-26T01:43:29.362Z,162.13
2018-03-26T01:44:33.937Z,155.33
2018-03-26T01:45:39.810Z,170.97
2018-03-26T01:46:45.402Z,160.17
2018-03-26T01:47:50.345Z,165.32
2018-03-26T01:48:54.552Z,164.00
2018-03-26T01:49:58.764Z,162.53
2018-03-26T01:51:03.008Z,168.60
2018-03-26T01:52:09.474Z,152.70
2018-03-26T01:53:15.537Z,172.48
2018-03-26T01:54:21.166Z,143.77
2018-03-26T01:55:26.140Z,160.07
2018-03-26T01:56:30.370Z,179.23
2018-03-26T01:57:35.834Z,177.60
2018-03-26T01:58:43.983Z,153.83
2018-03-26T01:59:51.516Z,156.10
2018-03-26T02:00:56.637Z,164.67
2018-03-26T02:02:00.850Z,164.30
2018-03-26T02:03:07.947Z,185.70
2018-03-26T02:04:14.383Z,159.10
2018-03-26T02:05:20.346Z,157.73
2018-03-26T02:06:25.850Z,152.87
2018-03-26T02:07:30.047Z,158.93
2018-03-26T02:08:35.011Z,135.27
2018-03-26T02:09:43.292Z,121.20
2018-03-26T02:10:50.878Z,151.30
2018-03-26T02:11:55.145Z,162.03
2018-03-26T02:12:59.343Z,127.60
2018-03-26T02:14:06.604Z,141.00
2018-03-26T02:15:12.869Z,145.93
2018-03-26T02:16:17.949Z,137.27
2018-03-26T02:17:22.725Z,134.77
2018-03-26T02:18:26.995Z,133.33
2018-03-26T02:19:31.218Z,130.57
2018-03-26T02:20:37.005Z,137.53
2018-03-26T02:21:43.469Z,140.93
2018-03-26T02:22:48.410Z,135.60
2018-03-26T02:23:53.113Z,137.97
2018-03-26T02:24:57.323Z,145.43
2018-03-26T02:26:01.588Z,126.93
2018-03-26T02:27:10.212Z,121.63
2018-03-26T02:28:15.858Z,123.23
2018-03-26T02:29:21.492Z,140.80
2018-03-26T02:30:25.697Z,126.27
2018-03-26T02:31:29.924Z,114.83
2018-03-26T02:32:34.931Z,123.30
2018-03-26T02:33:42.252Z,123.63
2018-03-26T02:34:47.995Z,108.07
2018-03-26T02:35:53.564Z,105.07
2018-03-26T02:36:57.793Z,106.30
2018-03-26T02:38:02.058Z,105.90
2018-03-26T02:39:08.778Z,120.13
2018-03-26T02:40:15.111Z,111.15
2018-03-26T02:41:20.261Z,97.13
2018-03-26T02:42:24.543Z,115.70
2018-03-26T02:43:28.785Z,110.63
2018-03-26T02:44:33.287Z,108.33
2018-03-26T02:45:38.847Z,114.80
2018-03-26T02:46:43.707Z,101.57
2018-03-26T02:47:50.075Z,105.10
2018-03-26T02:48:54.285Z,112.70
2018-03-26T02:49:58.552Z,113.20
2018-03-26T02:51:02.760Z,105.60
2018-03-26T02:52:08.839Z,101.33
2018-03-26T02:53:15.168Z,102.87
2018-03-26T02:54:19.895Z,104.17
2018-03-26T02:55:24.887Z,120.10
2018-03-26T02:56:29.108Z,126.18
2018-03-26T02:57:33.409Z,119.57
2018-03-26T02:58:38.984Z,132.33
2018-03-26T02:59:45.949Z,118.87
2018-03-26T03:00:52.319Z,105.47
2018-03-26T03:01:56.551Z,119.73
2018-03-26T03:03:01.545Z,114.80
2018-03-26T03:04:06.656Z,113.03
2018-03-26T03:05:12.961Z,104.63
2018-03-26T03:06:19.278Z,106.07
2018-03-26T03:07:23.605Z,96.10
2018-03-26T03:08:27.823Z,107.25
2018-03-26T03:09:32.013Z,99.93
2018-03-26T03:10:38.680Z,101.67
2018-03-26T03:11:45.362Z,95.13
2018-03-26T03:12:50.705Z,96.68
2018-03-26T03:13:54.940Z,97.73
2018-03-26T03:14:59.139Z,97.18
2018-03-26T03:16:03.351Z,96.63
2018-03-26T03:17:10.043Z,121.57
2018-03-26T03:18:15.282Z,130.87
2018-03-26T03:19:20.612Z,128.98
2018-03-26T03:20:24.828Z,125.20
2018-03-26T03:21:29.045Z,138.30
2018-03-26T03:22:33.347Z,114.33
2018-03-26T03:23:40.413Z,104.40
2018-03-26T03:24:45.912Z,120.62
2018-03-26T03:25:50.440Z,100.60
2018-03-26T03:26:54.651Z,94.97
2018-03-26T03:27:58.916Z,73.43
2018-03-26T03:29:03.152Z,69.30
2018-03-26T03:30:10.833Z,64.20
2018-03-26T03:31:17.348Z,71.57
2018-03-26T03:32:22.524Z,78.23
2018-03-26T03:33:27.904Z,85.12
2018-03-26T03:34:32.108Z,87.77
2018-03-26T03:35:38.901Z,95.07
2018-03-26T03:36:43.746Z,89.28
2018-03-26T03:37:49.582Z,93.07
2018-03-26T03:38:54.624Z,94.10
2018-03-26T03:39:58.824Z,97.73
2018-03-26T03:41:03.179Z,90.03
2018-03-26T03:42:09.328Z,99.65
2018-03-26T03:43:15.622Z,97.90
2018-03-26T03:44:20.988Z,113.15
2018-03-26T03:45:25.196Z,97.67
2018-03-26T03:46:29.401Z,98.03
2018-03-26T03:47:34.289Z,104.93
2018-03-26T03:48:41.949Z,102.00
2018-03-26T03:49:48.327Z,107.20
2018-03-26T03:50:52.655Z,109.22
2018-03-26T03:51:57.605Z,112.97
2018-03-26T03:53:01.826Z,102.78
2018-03-26T03:54:06.995Z,135.37
2018-03-26T03:55:12.560Z,123.77
2018-03-26T03:56:17.245Z,178.67
2018-03-26T03:57:22.071Z,146.37
2018-03-26T03:58:26.323Z,154.55
2018-03-26T03:59:31.334Z,159.90
2018-03-26T04:00:37.652Z,176.33
2018-03-26T04:01:42.886Z,141.40
2018-03-26T04:02:47.664Z,185.60
2018-03-26T04:03:52.750Z,116.50
2018-03-26T04:04:57.017Z,126.95
2018-03-26T04:06:01.236Z,116.43
2018-03-26T04:07:07.666Z,184.13
2018-03-26T04:08:14.358Z,134.73
2018-03-26T04:09:20.373Z,92.87
2018-03-26T04:10:24.663Z,100.63
2018-03-26T04:11:28.862Z,129.10
2018-03-26T04:12:33.077Z,170.93
2018-03-26T04:13:40.453Z,123.15
2018-03-26T04:14:45.838Z,103.83
2018-03-26T04:15:50.659Z,91.43
2018-03-26T04:16:54.880Z,96.37
2018-03-26T04:17:59.065Z,127.00
2018-03-26T04:19:03.298Z,80.53
2018-03-26T04:20:08.297Z,118.20
2018-03-26T04:21:13.557Z,194.00
2018-03-26T04:22:18.960Z,78.05
2018-03-26T04:23:23.172Z,139.82
2018-03-26T04:24:27.391Z,132.35
2018-03-26T04:25:31.592Z,89.80
2018-03-26T04:26:36.169Z,81.03
2018-03-26T04:27:41.187Z,53.47
2018-03-26T04:28:47.753Z,63.53
2018-03-26T04:30:00.373Z,65.20
2018-03-26T04:31:06.118Z,102.62
2018-03-26T04:32:12.115Z,75.33
2018-03-26T04:33:17.052Z,64.97
2018-03-26T04:34:21.682Z,77.45
2018-03-26T04:35:25.867Z,71.83
2018-03-26T04:36:30.084Z,92.78
2018-03-26T04:37:34.827Z,66.90
2018-03-26T04:38:41.879Z,86.87
2018-03-26T04:39:46.731Z,67.72
2018-03-26T04:40:52.136Z,78.03
2018-03-26T04:41:56.357Z,106.87
2018-03-26T04:43:00.987Z,110.73
2018-03-26T04:44:06.435Z,88.13
2018-03-26T04:45:13.785Z,110.87
2018-03-26T04:46:18.899Z,69.65
2018-03-26T04:47:23.175Z,77.10
2018-03-26T04:48:27.449Z,68.30
2018-03-26T04:49:31.670Z,84.57
2018-03-26T04:50:39.081Z,124.55
2018-03-26T04:51:43.698Z,101.77
2018-03-26T04:52:51.118Z,91.68
2018-03-26T04:53:56.133Z,77.87
2018-03-26T04:55:00.327Z,71.97
2018-03-26T04:56:06.249Z,73.93
2018-03-26T04:57:12.532Z,70.57
2018-03-26T04:58:17.864Z,64.33
2018-03-26T04:59:22.389Z,88.63
2018-03-26T05:00:26.952Z,78.27
2018-03-26T05:01:31.158Z,68.77
2018-03-26T05:02:36.449Z,81.83
2018-03-26T05:03:42.287Z,83.57
2018-03-26T05:04:48.952Z,102.37
2018-03-26T05:05:53.696Z,122.50
2018-03-26T05:06:57.948Z,72.70
2018-03-26T05:08:02.147Z,96.77
2018-03-26T05:09:09.477Z,81.47
2018-03-26T05:10:15.151Z,99.93
2018-03-26T05:11:20.568Z,78.73
2018-03-26T05:12:24.827Z,75.50
2018-03-26T05:13:29.357Z,79.10
2018-03-26T05:14:36.896Z,66.57
2018-03-26T05:15:43.498Z,44.70
2018-03-26T05:16:48.682Z,95.33
2018-03-26T05:17:53.733Z,62.47
2018-03-26T05:18:58.086Z,56.97
2018-03-26T05:20:03.965Z,45.03
2018-03-26T05:21:10.132Z,28.30
2018-03-26T05:22:15.771Z,33.23
2018-03-26T05:23:20.500Z,29.77
2018-03-26T05:24:24.763Z,25.17
2018-03-26T05:25:28.959Z,29.40
2018-03-26T05:26:33.204Z,39.00
2018-03-26T05:27:40.107Z,32.97
2018-03-26T05:28:45.998Z,31.77
2018-03-26T05:29:50.807Z,33.40
2018-03-26T05:30:55.000Z,36.03
2018-03-26T05:31:59.213Z,29.63
2018-03-26T05:33:03.431Z,31.47
2018-03-26T05:34:10.466Z,29.83
2018-03-26T05:35:17.442Z,41.53
2018-03-26T05:36:22.107Z,44.10
2018-03-26T05:37:26.313Z,28.07
2018-03-26T05:38:30.502Z,27.63
2018-03-26T05:39:35.668Z,24.00
2018-03-26T05:40:42.080Z,30.88
2018-03-26T05:41:47.659Z,27.67
2018-03-26T05:42:52.535Z,35.83
2018-03-26T05:43:56.752Z,27.07
2018-03-26T05:45:01.733Z,38.70
2018-03-26T05:46:06.968Z,26.30
2018-03-26T05:47:14.235Z,29.10
2018-03-26T05:48:20.567Z,30.30
2018-03-26T05:49:25.539Z,28.73
2018-03-26T05:50:29.749Z,45.37
2018-03-26T05:51:35.110Z,32.40
2018-03-26T05:52:42.204Z,34.87
2018-03-26T05:53:47.272Z,39.57
2018-03-26T05:54:53.112Z,29.33
2018-03-26T05:55:58.076Z,32.57
2018-03-26T05:57:02.276Z,27.73
2018-03-26T05:58:08.581Z,30.90
2018-03-26T05:59:15.729Z,29.03
2018-03-26T06:00:21.705Z,32.23
2018-03-26T06:01:26.712Z,34.35
2018-03-26T06:02:30.925Z,24.97
2018-03-26T06:03:36.776Z,28.53
2018-03-26T06:04:42.876Z,28.33
2018-03-26T06:05:47.883Z,35.33
2018-03-26T06:06:52.323Z,28.33
2018-03-26T06:07:57.360Z,21.65
2018-03-26T06:09:02.349Z,29.23
2018-03-26T06:10:06.608Z,32.37
2018-03-26T06:11:12.096Z,27.53
2018-03-26T06:12:16.275Z,25.80
2018-03-26T06:13:20.580Z,36.03
2018-03-26T06:14:24.837Z,34.77
2018-03-26T06:18:24.312Z,42.40
2018-03-26T06:19:29.361Z,43.10
2018-03-26T06:20:33.594Z,36.80
2018-03-26T06:21:37.859Z,37.50
2018-03-26T06:22:42.686Z,36.90
2018-03-26T06:23:48.142Z,37.80
2018-03-26T06:24:52.369Z,38.47
2018-03-26T06:25:57.525Z,33.53
2018-03-26T06:27:01.752Z,26.50
2018-03-26T06:28:07.156Z,27.93
2018-03-26T06:29:11.614Z,35.27
2018-03-26T06:30:19.458Z,56.60
2018-03-26T06:31:24.034Z,34.90
2018-03-26T06:32:28.261Z,30.37
2018-03-26T06:33:33.335Z,31.98
2018-03-26T06:34:41.024Z,51.03
2018-03-26T06:35:47.684Z,40.27
2018-03-26T06:38:36.438Z,32.60
2018-03-26T06:39:44.645Z,32.47
2018-03-26T06:40:49.446Z,49.67
2018-03-26T06:41:53.796Z,25.83
2018-03-26T06:42:58.415Z,25.30
2018-03-26T06:44:02.640Z,26.80
2018-03-26T06:45:08.324Z,27.17
2018-03-26T06:46:13.909Z,27.27
2018-03-26T06:47:20.954Z,21.27
2018-03-26T06:48:25.195Z,35.73
2018-03-26T06:49:29.398Z,23.07
2018-03-26T06:50:34.013Z,28.02
2018-03-26T06:51:42.065Z,23.53
2018-03-26T06:52:49.118Z,31.10
2018-03-26T06:53:53.892Z,34.17
2018-03-26T06:54:58.894Z,29.40
2018-03-26T06:56:03.101Z,22.07
2018-03-26T06:57:08.508Z,20.93
2018-03-26T06:58:15.479Z,18.83
2018-03-26T06:59:22.032Z,15.77
2018-03-26T07:00:26.248Z,21.30
2018-03-26T07:01:30.461Z,19.30
2018-03-26T07:02:37.848Z,20.33
2018-03-26T07:03:44.181Z,18.23
2018-03-26T07:04:49.313Z,24.03
2018-03-26T07:05:54.286Z,17.17
2018-03-26T07:06:58.494Z,18.40
2018-03-26T07:08:03.139Z,19.83
2018-03-26T07:09:09.907Z,17.95
2018-03-26T07:10:17.059Z,18.20
2018-03-26T07:11:22.807Z,18.20
2018-03-26T07:12:27.046Z,22.80
2018-03-26T07:13:31.306Z,25.27
2018-03-26T07:14:38.368Z,15.50
2018-03-26T07:15:44.975Z,18.97
2018-03-26T07:16:50.867Z,20.87
2018-03-26T07:17:55.063Z,20.53
2018-03-26T07:18:59.303Z,19.90
2018-03-26T07:20:03.733Z,17.30
2018-03-26T07:21:11.194Z,18.10
2018-03-26T07:22:17.564Z,22.10
2018-03-26T07:23:22.332Z,18.70
2018-03-26T07:24:26.528Z,17.67
2018-03-26T07:25:31.500Z,26.85
2018-03-26T07:26:36.794Z,16.20
2018-03-26T07:27:41.752Z,15.67
2018-03-26T07:28:46.890Z,18.33
2018-03-26T07:29:51.135Z,16.57
2018-03-26T07:30:55.321Z,17.53
2018-03-26T07:31:59.535Z,15.37
2018-03-26T07:33:04.735Z,20.90
2018-03-26T07:34:10.268Z,18.70
2018-03-26T07:35:15.723Z,17.67
2018-03-26T07:36:20.097Z,12.93
2018-03-26T07:37:24.281Z,15.80
2018-03-26T07:38:28.536Z,26.87
2018-03-26T07:39:33.587Z,15.20
2018-03-26T07:40:38.052Z,19.17
2018-03-26T07:41:42.318Z,15.40
2018-03-26T07:42:46.678Z,18.50
2018-03-26T07:43:51.045Z,18.07
2018-03-26T07:44:55.243Z,21.23
2018-03-26T07:46:00.199Z,18.07
2018-03-26T07:47:04.635Z,18.97
2018-03-26T07:48:09.626Z,11.77
2018-03-26T07:49:14.241Z,27.53
2018-03-26T07:50:18.471Z,16.27
2018-03-26T07:51:22.664Z,24.30
2018-03-26T07:52:26.862Z,22.37
2018-03-26T07:53:31.825Z,16.53
2018-03-26T07:54:37.763Z,19.20
2018-03-26T07:55:42.658Z,16.13
2018-03-26T07:56:47.426Z,16.97
2018-03-26T07:57:52.606Z,15.93
2018-03-26T07:58:57.587Z,15.20
2018-03-26T08:00:02.190Z,16.67
2018-03-26T08:01:08.679Z,16.20
2018-03-26T08:02:15.687Z,19.47
2018-03-26T08:03:20.535Z,18.60
2018-03-26T08:04:25.486Z,17.33
2018-03-26T08:05:30.137Z,22.20
2018-03-26T08:06:35.301Z,24.87
2018-03-26T08:07:43.532Z,15.00
2018-03-26T08:08:49.803Z,11.70
2018-03-26T08:09:54.322Z,14.27
2018-03-26T08:10:58.581Z,10.00
2018-03-26T08:12:02.778Z,10.90
2018-03-26T08:13:08.659Z,14.20
2018-03-26T08:14:14.717Z,13.43
2018-03-26T08:15:20.622Z,13.27
2018-03-26T08:16:24.874Z,12.07
2018-03-26T08:17:29.072Z,12.60
2018-03-26T08:18:33.343Z,11.20
2018-03-26T08:19:40.483Z,11.03
2018-03-26T08:20:46.148Z,16.90
2018-03-26T08:21:51.741Z,13.80
2018-03-26T08:22:55.948Z,12.33
2018-03-26T08:24:00.173Z,12.23
2018-03-26T08:25:05.186Z,12.97
2018-03-26T08:26:12.323Z,13.53
2018-03-26T08:27:18.697Z,16.60
2018-03-26T08:28:24.317Z,11.77
2018-03-26T08:29:29.295Z,14.10
2018-03-26T08:30:33.600Z,16.10
2018-03-26T08:31:40.627Z,11.90
2018-03-26T08:32:46.651Z,13.00
2018-03-26T08:33:51.636Z,11.53
2018-03-26T08:34:55.842Z,10.43
2018-03-26T08:36:00.055Z,13.97
2018-03-26T08:37:05.082Z,12.03
2018-03-26T08:38:12.275Z,14.63
2018-03-26T08:39:17.134Z,12.70
2018-03-26T08:40:22.092Z,18.10
2018-03-26T08:41:26.273Z,13.67
2018-03-26T08:42:30.538Z,15.63
2018-03-26T08:43:35.890Z,9.73
2018-03-26T08:44:42.809Z,15.07
2018-03-26T08:45:51.604Z,16.90
2018-03-26T08:46:55.810Z,12.90
2018-03-26T08:48:00.001Z,10.03
2018-03-26T08:49:05.837Z,17.20
2018-03-26T08:50:12.060Z,14.93
2018-03-26T08:51:18.637Z,16.20
2018-03-26T08:52:24.684Z,17.90
2018-03-26T08:53:29.365Z,18.10
2018-03-26T08:54:33.128Z,15.80
2018-03-26T08:55:39.705Z,18.70
2018-03-26T08:56:44.687Z,21.20
2018-03-26T08:57:50.416Z,19.20
2018-03-26T08:58:54.667Z,23.60
2018-03-26T08:59:58.869Z,21.03
2018-03-26T09:01:03.066Z,18.80
2018-03-26T09:02:08.811Z,20.33
2018-03-26T09:03:14.413Z,20.73
2018-03-26T09:04:19.276Z,24.73
2018-03-26T09:05:23.755Z,20.10
2018-03-26T09:06:27.965Z,23.13
2018-03-26T09:07:32.165Z,26.13
2018-03-26T09:08:38.603Z,28.10
2018-03-26T09:09:46.027Z,23.80
2018-03-26T09:10:52.306Z,21.47
2018-03-26T09:11:56.540Z,24.60
2018-03-26T09:13:00.757Z,19.40
2018-03-26T09:14:05.916Z,22.40
2018-03-26T09:15:12.547Z,22.87
2018-03-26T09:16:18.011Z,21.17
2018-03-26T09:17:22.389Z,21.83
2018-03-26T09:18:26.560Z,20.40
2018-03-26T09:19:31.541Z,22.00
2018-03-26T09:20:36.163Z,17.50
2018-03-26T09:21:41.244Z,17.90
2018-03-26T09:22:47.403Z,17.27
2018-03-26T09:23:51.622Z,14.70
2018-03-26T09:24:55.819Z,13.43
2018-03-26T09:26:00.012Z,12.13
2018-03-26T09:27:06.518Z,13.23
2018-03-26T09:28:11.735Z,16.30
2018-03-26T09:29:17.467Z,12.73
2018-03-26T09:30:22.431Z,12.30
2018-03-26T09:31:26.713Z,16.43
2018-03-26T09:32:31.665Z,11.17
2018-03-26T09:33:35.907Z,13.30
2018-03-26T09:34:40.164Z,16.73
2018-03-26T09:35:45.146Z,15.50
2018-03-26T09:36:49.394Z,15.87
2018-03-26T09:37:54.371Z,16.70
2018-03-26T09:38:58.554Z,15.30
2018-03-26T09:40:02.752Z,15.30
2018-03-26T09:41:09.931Z,11.47
2018-03-26T09:42:15.371Z,15.03
2018-03-26T09:43:20.682Z,14.83
2018-03-26T09:44:25.660Z,14.83
2018-03-26T09:45:29.855Z,21.47
2018-03-26T09:46:36.607Z,14.77
2018-03-26T09:47:43.053Z,11.33
2018-03-26T09:48:49.871Z,12.67
2018-03-26T09:49:54.526Z,14.13
2018-03-26T09:50:58.715Z,16.07
2018-03-26T09:52:02.955Z,13.37
2018-03-26T09:53:07.391Z,14.33
2018-03-26T09:54:11.749Z,11.67
2018-03-26T09:55:15.966Z,9.43
2018-03-26T09:56:20.156Z,11.77
2018-03-26T09:57:24.373Z,13.10
2018-03-26T09:58:28.628Z,15.20
2018-03-26T09:59:32.987Z,10.00
2018-03-26T10:00:46.258Z,14.20
2018-03-26T10:01:56.893Z,14.10
2018-03-26T10:03:01.214Z,12.10
2018-03-26T10:04:08.442Z,12.10
2018-03-26T10:05:14.740Z,13.87
2018-03-26T10:06:21.238Z,15.40
2018-03-26T10:07:25.431Z,11.77
2018-03-26T10:08:29.635Z,12.27
2018-03-26T10:09:35.557Z,12.27
2018-03-26T10:10:41.533Z,20.27
2018-03-26T10:11:48.218Z,14.73
2018-03-26T10:12:52.496Z,10.20
2018-03-26T10:13:56.700Z,10.57
2018-03-26T10:15:03.512Z,13.13
2018-03-26T10:16:09.531Z,11.37
2018-03-26T10:17:14.913Z,11.17
2018-03-26T10:18:19.515Z,14.53
2018-03-26T10:19:23.717Z,9.60
2018-03-26T10:20:28.366Z,12.90
2018-03-26T10:21:33.884Z,19.63
2018-03-26T10:22:39.422Z,10.77
2018-03-26T10:23:45.154Z,10.43
2018-03-26T10:24:49.641Z,13.13
2018-03-26T10:25:54.667Z,12.57
2018-03-26T10:26:58.855Z,12.50
2018-03-26T10:28:06.013Z,9.77
2018-03-26T10:29:11.355Z,15.40
2018-03-26T10:30:17.199Z,12.87
2018-03-26T10:31:21.797Z,14.33
2018-03-26T10:32:25.983Z,18.13
2018-03-26T10:33:31.125Z,12.30
2018-03-26T10:34:35.418Z,15.10
2018-03-26T10:35:39.698Z,10.67
2018-03-26T10:36:43.973Z,11.30
2018-03-26T10:37:48.193Z,13.10
2018-03-26T10:38:52.409Z,13.03
2018-03-26T10:39:56.629Z,12.50
2018-03-26T10:41:00.875Z,12.20
2018-03-26T10:42:05.199Z,14.57
2018-03-26T10:43:09.685Z,11.70
2018-03-26T10:44:13.879Z,11.20
2018-03-26T10:45:18.109Z,11.93
2018-03-26T10:46:22.311Z,14.63
2018-03-26T10:47:27.867Z,13.60
2018-03-26T10:48:35.151Z,10.17
2018-03-26T10:49:40.383Z,18.40
2018-03-26T10:50:44.624Z,13.97
2018-03-26T10:51:48.824Z,15.83
2018-03-26T10:52:53.034Z,12.57
2018-03-26T10:53:57.227Z,13.80
2018-03-26T10:55:01.506Z,11.47
2018-03-26T10:56:06.128Z,10.07
2018-03-26T10:57:10.358Z,18.80
2018-03-26T10:58:14.576Z,12.57
2018-03-26T10:59:18.779Z,17.97
2018-03-26T11:00:23.036Z,8.47
2018-03-26T11:01:27.309Z,11.57
2018-03-26T11:02:31.530Z,10.80
2018-03-26T11:03:35.782Z,8.97
2018-03-26T11:04:40.039Z,10.20
2018-03-26T11:05:44.643Z,14.20
2018-03-26T11:06:48.844Z,7.97
2018-03-26T11:07:53.042Z,12.33
2018-03-26T11:08:57.999Z,9.67
2018-03-26T11:10:03.040Z,12.30
2018-03-26T11:11:09.934Z,17.67
2018-03-26T11:12:16.534Z,10.67
2018-03-26T11:13:21.613Z,11.53
2018-03-26T11:14:25.814Z,9.90
2018-03-26T11:15:30.004Z,9.83
2018-03-26T11:16:36.883Z,9.20
2018-03-26T11:17:41.750Z,13.90
2018-03-26T11:18:46.572Z,11.07
2018-03-26T11:19:50.772Z,9.60
2018-03-26T11:20:54.967Z,14.70
2018-03-26T11:21:59.163Z,9.33
2018-03-26T11:23:05.573Z,11.83
2018-03-26T11:24:12.458Z,11.77
2018-03-26T11:25:17.318Z,12.90
2018-03-26T11:26:21.540Z,9.20
2018-03-26T11:27:25.742Z,11.03
2018-03-26T11:28:29.946Z,13.03
2018-03-26T11:29:36.297Z,10.37
2018-03-26T11:30:41.324Z,11.60
2018-03-26T11:31:47.758Z,15.00
2018-03-26T11:32:51.982Z,9.83
2018-03-26T11:33:56.161Z,9.07
2018-03-26T11:35:00.386Z,9.93
2018-03-26T11:36:05.904Z,12.90
2018-03-26T11:37:12.076Z,10.07
2018-03-26T11:38:18.120Z,9.43
2018-03-26T11:39:22.336Z,8.70
2018-03-26T11:40:26.532Z,11.30
2018-03-26T11:41:30.717Z,10.23
2018-03-26T11:42:35.948Z,12.00
2018-03-26T11:43:40.608Z,11.50
2018-03-26T11:44:47.143Z,10.57
2018-03-26T11:45:51.334Z,15.63
2018-03-26T11:46:56.286Z,9.27
2018-03-26T11:48:00.470Z,11.43
2018-03-26T11:49:06.167Z,6.77
2018-03-26T11:50:13.001Z,6.90
2018-03-26T11:51:18.075Z,11.63
2018-03-26T11:52:22.306Z,10.60
2018-03-26T11:53:26.499Z,11.20
2018-03-26T11:54:30.720Z,10.20
2018-03-26T11:55:39.121Z,11.83
2018-03-26T11:56:44.785Z,9.57
2018-03-26T11:57:49.479Z,9.17
2018-03-26T11:58:53.680Z,10.43
2018-03-26T11:59:57.889Z,13.77
2018-03-26T12:01:03.318Z,10.07
2018-03-26T12:02:09.614Z,16.73
2018-03-26T12:03:15.401Z,13.63
2018-03-26T12:04:19.721Z,9.57
2018-03-26T12:05:23.933Z,10.30
2018-03-26T12:06:28.132Z,9.93
2018-03-26T12:07:33.699Z,11.97
2018-03-26T12:08:39.539Z,10.03
2018-03-26T12:09:44.306Z,12.50
2018-03-26T12:10:49.580Z,17.33
2018-03-26T12:11:54.548Z,9.70
2018-03-26T12:12:58.735Z,8.67
2018-03-26T12:14:03.773Z,13.00
2018-03-26T12:15:09.537Z,6.90
2018-03-26T12:16:15.894Z,15.30
2018-03-26T12:17:21.003Z,8.63
2018-03-26T12:18:25.190Z,7.10
2018-03-26T12:19:29.412Z,6.57
2018-03-26T12:20:52.232Z,7.77
2018-03-26T12:21:56.425Z,8.40
2018-03-26T12:23:13.482Z,7.37
2018-03-26T12:24:36.382Z,6.40
2018-03-26T12:25:41.354Z,6.40
2018-03-26T12:26:46.355Z,14.17
2018-03-26T12:28:09.164Z,9.00
2018-03-26T12:30:57.033Z,11.63
2018-03-26T12:32:01.740Z,8.40
2018-03-26T12:33:06.384Z,8.93
2018-03-26T12:34:28.449Z,8.90
2018-03-26T12:35:50.420Z,8.50
2018-03-26T12:36:54.629Z,7.20
2018-03-26T12:37:58.849Z,9.40
2018-03-26T12:39:06.031Z,9.80
2018-03-26T12:40:28.464Z,9.77
2018-03-26T12:41:34.717Z,13.30
2018-03-26T12:42:40.127Z,9.43
2018-03-26T12:43:45.896Z,10.90
2018-03-26T12:45:10.593Z,8.93
2018-03-26T12:46:34.784Z,11.00
2018-03-26T12:47:40.055Z,7.73
2018-03-26T12:48:45.488Z,6.10
2018-03-26T12:49:49.843Z,7.00
2018-03-26T12:51:14.218Z,6.80
2018-03-26T12:52:36.765Z,6.70
2018-03-26T12:53:42.863Z,7.73
2018-03-26T12:54:48.545Z,11.80
2018-03-26T12:55:53.087Z,13.30
2018-03-26T12:57:16.690Z,10.20
2018-03-26T12:58:39.175Z,7.17
2018-03-26T12:59:46.588Z,7.70
2018-03-26T13:01:11.057Z,8.23
2018-03-26T13:02:30.488Z,7.43
2018-03-26T13:03:36.801Z,11.67
2018-03-26T13:04:42.261Z,9.93
2018-03-26T13:05:47.166Z,10.60
2018-03-26T13:06:52.169Z,10.10
2018-03-26T13:07:56.349Z,6.23
2018-03-26T13:09:00.586Z,9.37
2018-03-26T13:10:05.844Z,8.77
2018-03-26T13:11:12.442Z,8.30
2018-03-26T13:12:18.241Z,7.27
2018-03-26T13:13:22.433Z,7.40
2018-03-26T13:14:26.666Z,7.50
2018-03-26T13:15:30.874Z,8.60
2018-03-26T13:16:36.666Z,9.90
2018-03-26T13:17:42.006Z,11.27
2018-03-26T13:18:47.607Z,10.03
2018-03-26T13:19:51.821Z,9.83
2018-03-26T13:20:56.040Z,7.40
2018-03-26T13:22:02.435Z,9.23
2018-03-26T13:23:08.981Z,9.13
2018-03-26T13:24:14.396Z,8.50
2018-03-26T13:25:19.438Z,13.10
2018-03-26T13:26:24.812Z,9.40
2018-03-26T13:27:29.008Z,9.40
2018-03-26T13:28:34.779Z,9.87
2018-03-26T13:29:40.519Z,8.40
2018-03-26T13:30:45.443Z,8.90
2018-03-26T13:31:49.799Z,7.60
2018-03-26T13:32:54.005Z,8.23
2018-03-26T13:33:58.194Z,10.70
2018-03-26T13:35:03.072Z,7.67
2018-03-26T13:36:09.710Z,8.30
2018-03-26T13:37:15.100Z,9.03
2018-03-26T13:38:19.562Z,8.20
2018-03-26T13:39:23.754Z,5.70
2018-03-26T13:40:27.968Z,6.93
2018-03-26T13:41:32.554Z,4.83
2018-03-26T13:42:37.938Z,7.30
2018-03-26T13:43:43.086Z,5.93
2018-03-26T13:44:47.796Z,4.80
2018-03-26T13:45:52.004Z,5.23
2018-03-26T13:46:56.192Z,5.30
2018-03-26T13:48:00.408Z,6.83
2018-03-26T13:49:05.157Z,11.93
2018-03-26T13:50:11.452Z,7.90
2018-03-26T13:51:16.590Z,9.13
2018-03-26T13:52:20.911Z,4.60
2018-03-26T13:53:25.126Z,6.83
2018-03-26T13:54:29.334Z,6.47
2018-03-26T13:55:34.772Z,7.40
2018-03-26T13:56:40.512Z,6.23
2018-03-26T13:57:45.639Z,7.33
2018-03-26T13:58:50.843Z,7.87
2018-03-26T13:59:55.158Z,6.57
2018-03-26T14:00:59.396Z,6.27
2018-03-26T14:02:05.933Z,5.93
2018-03-26T14:03:11.026Z,9.07
2018-03-26T14:04:18.034Z,8.20
2018-03-26T14:05:22.287Z,8.93
2018-03-26T14:06:26.552Z,6.30
2018-03-26T14:07:30.711Z,5.27